Weather observations for the past three days for
Pauls Valley, Pauls Valley Municipal Airport
Imperial (Metric)
Date Time (cdt) Wind (mph) Vis. (mi.) Weather Sky Cond. Temperature (ºF) Relative Humidity Wind Chill (°F) Heat Index (°F) Pressure Precipitation (in)
Air Dwpt 6 hour altimeter (in) sea level (mb) 1 hr 3 hr 6 hr
Max. Min.
10 09:35 Calm 7.00 Thunderstorm Rain BKN065 OVC090 60.1 59 96% 30.08 0.0 0.13
10 09:15 Calm 7.00 Thunderstorm Rain SCT043 BKN065 OVC090 60.3 59 96% 30.09 0.0 0.07
10 08:55 N 8 5.00 Thunderstorm Heavy Rain SCT011 BKN043 OVC065 60.6 59.4 96% 30.08 0.0 0.63
10 08:35 N 5 G 16 4.00 Thunderstorm Heavy Rain BKN011 BKN031 OVC040 61.2 59.9 96% 30.08 0.0 0.47
10 08:15 N 13 G 17 4.00 Thunderstorm Heavy Rain BKN011 BKN033 OVC100 61.9 60.1 94% 30.06 0.0 0.24
10 07:55 N 16 G 24 10.00 Thunderstorm Rain SCT013 SCT065 OVC090 62.6 59.9 91% 30.03 0.0 0.08
10 07:35 N 13 10.00 Overcast SCT011 SCT019 OVC090 63.1 61.2 93% 29.99 0.0
10 07:15 Calm 10.00 Thunderstorm in Vicinity OVC090 63 61 93% 29.93 0.0
10 06:55 Calm 10.00 Overcast OVC090 63 61.2 66.2 62.6 94% 29.92 0.0 0.78
10 06:35 Calm 10.00 Thunderstorm OVC100 63.1 61.7 95% 29.91 0.0
10 06:15 Calm 10.00 Overcast OVC100 62.6 60.6 93% 29.9 0.0
10 05:55 Calm 10.00 Overcast OVC110 62.8 59.9 90% 29.89 0.0 0.45
10 05:35 Calm 10.00 Overcast SCT031 SCT050 OVC110 63.1 59 86% 29.89 0.0 0.45
10 05:15 Calm 3.00 Thunderstorm Heavy Rain SCT026 BKN048 OVC110 65.5 56.7 73% 29.91 0.0 0.44
10 04:55 NE 12 G 16 7.00 Heavy Rain SCT031 SCT040 OVC110 65.1 61.2 87% 29.91 0.0 0.06
10 04:35 Calm 10.00 Light Rain OVC110 63.5 62.1 95% 29.9 0.0
10 04:15 Calm 10.00 Rain BKN110 63.1 61.3 94% 29.91 0.0
10 03:55 Calm 10.00 Light Rain SCT014 SCT060 OVC110 64 61.9 93% 29.97 0.0 0.1 0.24
10 03:35 S 12 G 16 10.00 Light Rain SCT060 SCT070 BKN120 63.5 62.1 95% 29.91 0.0 0.04
10 03:15 Calm 10.00 Thunderstorm Rain SCT060 SCT080 OVC120 64 61.7 92% 29.92 0.0 0.01
10 02:55 Calm 10.00 Light Rain OVC110 64.8 61.3 89% 29.92 0.0 0.02
10 02:35 Calm 10.00 Light Rain BKN110 64.6 61.7 90% 29.91 0.0 0.02
10 02:15 SE 7 10.00 Light Rain OVC110 64.6 61 88% 29.94 0.0
10 01:55 Calm 10.00 Light Rain SCT070 SCT090 OVC110 64 61.7 92% 29.97 0.0 0.12
10 01:35 NE 14 G 20 10.00 Thunderstorm Rain in Vicinity BKN070 OVC100 64.4 62.1 92% 29.96 0.0 0.11
10 01:15 Calm 10.00 Rain SCT070 OVC100 65.5 62.6 90% 30.03 0.0 0.06
10 00:55 Calm 7.00 Thunderstorm Rain SCT050 BKN080 OVC100 66.4 62.2 83.7 66.4 87% 30.01 0.0 0.18 0.26
10 00:35 N 25 G 30 7.00 Thunderstorm Heavy Rain and Breezy SCT050 SCT065 OVC100 69.8 61.9 76% 29.98 0.0 0.07
10 00:15 E 9 G 20 10.00 Partly Cloudy SCT110 71.2 62.1 73% 29.87 0.0
09 23:55 SE 17 G 24 10.00 Thunderstorm Light Rain in Vicinity SCT090 BKN110 69.8 62.2 77% 29.81 0.0
09 23:35 SE 6 10.00 Thunderstorm in Vicinity BKN110 68.4 61.7 79% 29.88 0.0
09 23:15 Calm 10.00 Thunderstorm in Vicinity BKN110 68 62.1 81% 29.86 0.0
09 22:55 Calm 10.00 Thunderstorm Light Rain SCT060 SCT080 OVC110 68.2 62.6 82% 29.9 0.0 0.08
09 22:35 Calm 7.00 Thunderstorm Heavy Rain SCT048 SCT070 BKN090 72.7 60.1 65% 29.96 0.0 0.03
09 22:15 Calm 10.00 Thunderstorm SCT070 BKN120 75.9 55.6 49% 78 29.92 0.0
09 21:55 N 8 G 23 10.00 Thunderstorm in Vicinity BKN120 74.7 57 54% 29.86 0.0
09 21:35 Calm 10.00 Partly Cloudy SCT120 73.9 57.6 57% 29.82 0.0
09 21:15 Calm 10.00 Fair CLR 74.3 57.6 56% 29.81 0.0
09 20:55 Calm 10.00 Fair CLR 75.2 56.5 52% 78 29.79 0.0
09 20:35 Calm 10.00 Fair CLR 76.5 55.8 49% 78 29.79 0.0
09 20:15 Calm 10.00 Fair CLR 77 56.1 49% 79 29.78 0.0
09 19:55 Calm 10.00 Fair CLR 77.9 56.3 47% 79 29.79 0.0
09 19:35 Calm 10.00 Fair CLR 79 56.3 46% 80 29.8 0.0
09 19:15 Calm 10.00 Fair CLR 82.9 55.9 40% 82 29.8 0.0
09 18:55 Calm 10.00 Fair CLR 84 56.3 86 80.2 39% 83 29.8 0.0
09 18:35 Calm 10.00 Fair CLR 84.6 56.7 39% 84 29.8 0.0
09 18:15 Calm 10.00 Fair CLR 85.1 57 38% 84 29.81 0.0
09 17:55 Calm 10.00 Fair CLR 85.5 56.7 38% 84 29.81 0.0
09 17:35 Calm 10.00 Fair CLR 85.5 56.3 37% 84 29.81 0.0
09 17:15 Calm 10.00 Fair CLR 85.8 54.5 34% 84 29.81 0.0
09 16:55 Calm 10.00 Fair CLR 85.3 54.1 34% 84 29.82 0.0
09 16:35 Calm 10.00 Fair CLR 85.1 54.7 35% 84 29.83 0.0
09 16:15 Calm 10.00 Fair CLR 84.7 55.6 37% 84 29.83 0.0
09 15:55 Calm 10.00 Fair CLR 84.6 56.8 39% 84 29.84 0.0
09 15:35 Calm 7.00 Fair CLR 84.2 56.3 39% 83 29.85 0.0
09 15:15 Calm 10.00 Fair CLR 83.7 55.8 39% 83 29.85 0.0
09 14:55 Calm 7.00 Fair CLR 83.5 57.2 41% 83 29.85 0.0
09 14:35 Calm 10.00 Fair CLR 82.8 57.2 42% 82 29.86 0.0
09 14:15 Calm 10.00 Fair CLR 82.4 57.9 43% 82 29.86 0.0
09 13:55 Calm 10.00 Fair CLR 82.4 59 45% 82 29.87 0.0
09 13:35 Calm 10.00 Fair CLR 81.7 60.1 48% 82 29.88 0.0
09 13:15 Calm 10.00 Fair CLR 80.8 59.9 49% 81 29.89 0.0
09 12:55 Calm 10.00 Fair CLR 79.2 61.2 79.9 55.6 54% 80 29.9 0.0
09 12:35 Calm 10.00 Fair CLR 79.7 61.7 54% 81 29.91 0.0
09 12:15 Calm 10.00 Fair CLR 78.8 61.3 55% 80 29.91 0.0
09 11:55 Calm 10.00 Fair CLR 78.3 62.6 59% 80 29.92 0.0
09 11:35 Calm 10.00 Fair CLR 77.2 61.9 59% 79 29.91 0.0
09 11:15 Calm 10.00 Fair CLR 76.5 62.6 62% 78 29.91 0.0
09 10:55 Calm 10.00 Fair CLR 75 63.3 67% 77 29.91 0.0
09 10:35 Calm 10.00 Fair CLR 74.3 63 68% 29.91 0.0
09 10:15 Calm 10.00 Fair CLR 72.3 64.4 76% 29.91 0.0
09 09:55 Calm 10.00 Fair CLR 70.9 64.4 80% 29.91 0.0
09 09:35 Calm 10.00 Fair CLR 68.9 63.9 84% 29.92 0.0
09 09:15 Calm 10.00 Fair CLR 65.7 63.3 92% 29.92 0.0
09 08:55 Calm 10.00 Fair CLR 64 62.6 95% 29.92 0.0
09 08:35 Calm 10.00 Fair CLR 62.1 61.9 99% 29.91 0.0
09 08:15 Calm 10.00 Fair CLR 59.9 59.9 100% 29.91 0.0
09 07:55 Calm 10.00 Fair CLR 59 58.8 99% 29.89 0.0
09 07:35 Calm 10.00 Fair CLR 57.6 57.6 100% 29.88 0.0
09 07:15 Calm 5.00 Fog/Mist CLR 56.8 56.8 100% 29.88 0.0
09 06:55 Calm 0.50 Fog VV005 56.3 56.3 64.4 56.3 100% 29.86 0.0
09 06:35 Calm 4.00 Fog/Mist CLR 57 57 100% 29.85 0.0
09 06:15 Calm 10.00 Fair CLR 57.9 57.9 100% 29.85 0.0
09 05:55 Calm 10.00 Fair CLR 58.5 58.5 100% 29.86 0.0
09 05:35 Calm 10.00 Fair CLR 59 59 100% 29.86 0.0
09 05:15 Calm 10.00 Fair CLR 59.4 59.4 100% 29.86 0.0
09 04:55 Calm 10.00 Fair CLR 60.1 60.1 100% 29.86 0.0
09 04:35 Calm 10.00 Partly Cloudy SCT020 60.4 60.1 99% 29.86 0.0
09 04:20 Calm 10.00 Partly Cloudy SCT020 61.2 60.8 99% 29.87 0.0
09 03:55 Calm 10.00 Overcast OVC020 62.1 61.9 99% 29.87 0.0
09 03:35 Calm 10.00 Mostly Cloudy BKN020 61.9 61.7 99% 29.87 0.0
09 03:15 Calm 10.00 Partly Cloudy SCT020 62.1 61.7 99% 29.87 0.0
09 02:55 Calm 10.00 Overcast OVC020 62.6 62.1 98% 29.88 0.0
09 02:35 Calm 10.00 Mostly Cloudy BKN022 62.4 61.7 98% 29.88 0.0
09 02:15 Calm 10.00 Partly Cloudy SCT022 62.6 61.7 97% 29.88 0.0
09 01:55 Calm 10.00 Fair CLR 63 61.7 96% 29.88 0.0
09 01:35 Calm 10.00 Fair CLR 63.5 61.9 95% 29.88 0.0
09 01:15 Calm 10.00 Fair CLR 63.7 61.9 94% 29.88 0.0
09 00:55 Calm 10.00 Fair CLR 63.9 61.3 76.8 62.6 92% 29.87 0.0
09 00:35 Calm 10.00 Fair CLR 62.8 60.4 92% 29.87 0.0
09 00:15 Calm 10.00 Fair CLR 64.6 60.6 87% 29.86 0.0
08 23:55 Calm 10.00 Fair CLR 65.1 60.1 84% 29.86 0.0
08 23:35 Calm 10.00 Fair CLR 64.9 60.3 85% 29.85 0.0
08 23:15 Calm 10.00 Fair CLR 66.4 60.3 81% 29.86 0.0
08 22:55 Calm 10.00 Fair CLR 67.3 60.3 78% 29.86 0.0
08 22:35 Calm 10.00 Fair CLR 67.5 59.9 77% 29.86 0.0
08 22:15 Calm 10.00 Fair CLR 66.7 59.9 79% 29.85 0.0
08 21:55 Calm 10.00 Fair CLR 67.6 59.9 76% 29.84 0.0
08 21:35 Calm 10.00 Partly Cloudy SCT100 66.6 60.1 80% 29.82 0.0
08 21:15 Calm 10.00 Partly Cloudy SCT100 66.4 60.3 81% 29.83 0.0
08 20:55 Calm 10.00 Partly Cloudy SCT042 SCT060 SCT120 67.5 58.5 73% 29.83 0.0
08 20:35 Calm 10.00 Thunderstorm in Vicinity BKN042 OVC060 68.7 57.9 69% 29.83 0.0
08 20:15 NE 15 G 22 10.00 Mostly Cloudy BKN042 74.3 59.5 60% 29.84 0.0
08 19:55 Calm 10.00 Fair CLR 74.8 59.9 60% 29.81 0.0
08 19:35 Calm 10.00 Fair CLR 75.2 59.2 58% 78 29.78 0.0
08 19:15 Calm 10.00 Fair CLR 76.3 59.4 56% 78 29.78 0.0
08 18:55 Calm 10.00 Fair CLR 77.4 58.8 82.4 76.6 53% 79 29.76 0.0
08 18:35 Calm 10.00 Fair CLR 79.5 58.8 49% 80 29.77 0.0
08 18:15 Calm 10.00 Fair CLR 79.7 59 49% 80 29.78 0.0
08 17:55 Calm 10.00 Partly Cloudy SCT050 81 59 47% 81 29.77 0.0
08 17:35 Calm 10.00 Partly Cloudy SCT050 80.6 59.5 49% 81 29.78 0.0
08 17:15 Calm 10.00 Partly Cloudy SCT050 79.5 59.4 50% 80 29.79 0.0
08 16:55 Calm 10.00 Mostly Cloudy BKN050 80.6 60.1 50% 81 29.8 0.0
08 16:35 Calm 10.00 Partly Cloudy SCT050 81.9 59.4 47% 82 29.81 0.0
08 16:15 S 3 10.00 Fair CLR 81.5 58.6 46% 82 29.81 0.0
08 15:55 Calm 10.00 Partly Cloudy SCT060 81.1 57.9 45% 81 29.82 0.0
08 15:35 Calm 10.00 Fair CLR 80.6 56.8 44% 81 29.82 0.0
08 15:15 Calm 10.00 Fair CLR 80.2 56.1 44% 80 29.83 0.0
08 14:55 S 3 10.00 Fair CLR 79.7 56.1 44% 80 29.83 0.0
08 14:35 Calm 10.00 Fair CLR 79.9 55.4 43% 80 29.84 0.0
08 14:15 Calm 10.00 Fair CLR 78.3 54.1 43% 79 29.85 0.0
08 13:55 Calm 10.00 Fair CLR 78.6 54.5 43% 79 29.86 0.0
08 13:35 Calm 10.00 Fair CLR 77.4 54.1 45% 79 29.87 0.0
08 13:15 SW 5 G 17 10.00 Fair CLR 77.2 52 42% 78 29.88 0.0
08 12:55 SW 14 G 17 10.00 Fair CLR 76.8 52 76.8 48.4 42% 78 29.89 0.0
08 12:35 S 12 G 17 10.00 Partly Cloudy SCT041 SCT050 75.7 52.2 44% 78 29.9 0.0
08 12:15 S 7 10.00 Overcast BKN044 OVC049 74.5 53.2 48% 29.92 0.0
08 11:55 S 9 10.00 Mostly Cloudy BKN042 72.7 52.2 49% 29.93 0.0
08 11:35 SW 6 10.00 Fair CLR 72.5 52.9 50% 29.94 0.0
08 11:15 Calm 10.00 Fair CLR 71.8 52.7 51% 29.95 0.0
08 10:55 S 9 10.00 Fair CLR 69.8 53.6 57% 29.96 0.0
08 10:35 S 5 10.00 Fair CLR 69.6 53.6 57% 29.97 0.0
08 10:15 Calm 10.00 Fair CLR 68.2 53.4 59% 29.98 0.0
08 09:55 SW 6 10.00 Fair CLR 66.6 54.5 65% 29.99 0.0
08 09:35 Calm 10.00 Fair CLR 63.5 54.5 73% 29.99 0.0
08 09:15 Calm 10.00 Fair CLR 60.6 53.6 78% 29.99 0.0
08 08:55 Calm 10.00 Fair CLR 58.5 52.9 82% 30 0.0
08 08:35 Calm 10.00 Fair CLR 56.8 52.2 84% 30 0.0
08 08:15 Calm 10.00 Fair CLR 54.9 51.6 89% 30 0.0
08 07:55 Calm 10.00 Fair CLR 52.7 50.9 94% 29.99 0.0
08 07:35 Calm 10.00 Fair CLR 50.7 49.3 95% 29.99 0.0
08 07:15 Calm 10.00 Fair CLR 48.9 47.8 96% 29.98 0.0
08 06:55 Calm 10.00 Fair CLR 48.4 47.3 54.7 48.4 96% 29.98 0.0
08 06:35 Calm 10.00 Fair CLR 49.1 47.7 95% 29.97 0.0
08 06:15 Calm 10.00 Fair CLR 49.6 48.2 95% 29.97 0.0
08 05:55 Calm 10.00 Fair CLR 49.5 48.2 95% 29.97 0.0
08 05:35 Calm 10.00 Fair CLR 49.6 47.8 94% 29.96 0.0
08 05:15 Calm 10.00 Fair CLR 50 48.2 94% 29.97 0.0
08 04:55 Calm 10.00 Fair CLR 50.2 48 92% 29.96 0.0
08 04:35 Calm 10.00 Fair CLR 50.2 47.7 91% 29.97 0.0
08 04:20 Calm 10.00 Fair CLR 50.5 47.5 89% 29.97 0.0
08 03:55 Calm 10.00 Fair CLR 51.1 47.5 88% 29.97 0.0
08 03:35 Calm 10.00 Fair CLR 50.9 47.5 88% 29.97 0.0
08 03:15 Calm 10.00 Fair CLR 50.9 47.3 88% 29.97 0.0
08 02:55 Calm 10.00 Fair CLR 50.5 47.1 88% 29.98 0.0
08 02:35 Calm 10.00 Fair CLR 51.4 47.3 86% 29.98 0.0
08 02:15 Calm 10.00 Fair CLR 52.3 47.7 84% 29.99 0.0
08 01:55 Calm 10.00 Fair CLR 52.2 47.5 84% 29.99 0.0
08 01:35 Calm 10.00 Fair CLR 53.8 47.5 79% 30 0.0
08 01:15 Calm 10.00 Fair CLR 54.5 47.8 78% 30 0.0
08 00:55 Calm 10.00 Fair CLR 54.7 47.3 73.6 54.7 76% 30.01 0.0
08 00:35 Calm 10.00 Fair CLR 55.8 47.5 74% 30.01 0.0
08 00:15 Calm 10.00 Fair CLR 56.3 47.1 71% 30.01 0.0
07 23:55 Calm 10.00 Fair CLR 55.2 47.3 75% 30.02 0.0
07 23:35 Calm 10.00 Fair CLR 55.8 47.8 75% 30.02 0.0
07 23:15 Calm 10.00 Fair CLR 58.3 46.6 65% 30.02 0.0
07 22:55 Calm 10.00 Fair CLR 59 46.4 63% 30.01 0.0
07 22:35 Calm 10.00 Fair CLR 59.2 45.9 62% 30.01 0.0
07 22:15 Calm 10.00 Fair CLR 56.8 47.1 70% 30.01 0.0
07 21:55 Calm 10.00 Fair CLR 57.7 46.2 66% 30 0.0
07 21:35 Calm 10.00 Fair CLR 59.5 45.7 60% 30 0.0
07 21:15 Calm 10.00 Fair CLR 60.1 46.2 60% 30 0.0
07 20:55 Calm 10.00 Fair CLR 60.6 46.9 61% 29.99 0.0
07 20:35 Calm 10.00 Fair CLR 64.6 47.5 54% 29.98 0.0
07 20:15 Calm 10.00 Fair CLR 69.3 44.8 42% 29.98 0.0
07 19:55 Calm 10.00 Fair CLR 70.9 43.5 37% 29.99 0.0
07 19:35 Calm 10.00 Fair CLR 72 41.5 33% 29.99 0.0
07 19:15 Calm 10.00 Fair CLR 72.9 40.6 31% 29.98 0.0
07 18:55 Calm 10.00 Fair CLR 73.8 40.5 74.3 67.1 30% 29.98 0.0
07 18:35 Calm 10.00 Fair CLR 73.6 39.2 29% 29.98 0.0
07 18:15 Calm 10.00 Fair CLR 73.6 38.8 28% 29.99 0.0
07 17:55 Calm 10.00 Fair CLR 73.8 40.5 30% 29.99 0.0
07 17:35 Calm 10.00 Fair CLR 73 38.7 29% 30 0.0
07 17:15 Calm 10.00 Fair CLR 73.8 39.6 29% 30 0.0
07 16:55 Calm 10.00 Fair CLR 74.1 39.7 29% 30.01 0.0
07 16:35 Calm 10.00 Fair CLR 73.8 40.1 30% 30.01 0.0
07 16:15 Calm 10.00 Fair CLR 73.2 39.4 29% 30.02 0.0
07 15:55 Calm 10.00 Fair CLR 72.3 41 32% 30.03 0.0
07 15:35 Calm 10.00 Fair CLR 71.2 39.7 32% 30.03 0.0
07 15:15 Calm 10.00 Fair CLR 70.5 41 34% 30.05 0.0
07 14:55 Calm 10.00 Fair CLR 71.4 41.9 35% 30.06 0.0
07 14:35 Calm 10.00 Fair CLR 69.6 39.4 33% 30.06 0.0
07 14:15 Calm 10.00 Fair CLR 69.4 40.8 35% 30.07 0.0
07 13:55 Calm 10.00 Fair CLR 68.7 41 37% 30.08 0.0
07 13:35 Calm 10.00 Fair CLR 67.8 41.4 38% 30.09 0.0
07 13:15 Calm 10.00 Fair CLR 67.6 40.6 37% 30.11 0.0
07 12:55 Calm 10.00 Fair CLR 66.7 40.5 67.1 43.2 38% 30.11 0.0
07 12:35 Calm 10.00 Fair CLR 65.8 40.5 40% 30.13 0.0
07 12:15 Calm 10.00 Fair CLR 64.9 40.1 40% 30.14 0.0
07 11:55 Calm 10.00 Fair CLR 64.4 39.2 40% 30.14 0.0
07 11:35 Calm 10.00 Fair CLR 63.1 38.1 40% 30.15 0.0
07 11:15 Calm 10.00 Fair CLR 63.1 39.2 41% 30.16 0.0
07 10:55 Calm 10.00 Fair CLR 61.9 38.1 42% 30.16 0.0
07 10:35 Calm 10.00 Fair CLR 60.6 39.7 46% 30.17 0.0
07 10:15 Calm 10.00 Fair CLR 60.1 40.8 49% 30.18 0.0
Date Time (cdt) Wind (mph) Vis. (mi.) Weather Sky Cond. Air Dwpt Max. Min. Relative Humidity Wind Chill (°F) Heat Index (°F) altimeter (in) sea level (mb) 1 hr 3 hr 6 hr
6 hour
Temperature (ºF) Pressure Precipitation (in)